Parishville Center, New York
Current Conditions -  °F | °C
As of 9:53 AM on Wednesday 26 Nov 2014 (Local Time) from KMSS Reporting Station
Clear Clear  
Wind Chill: 31°   Ceiling: Unl
Heat Index: 31°   Visibility: 10mi
Dew Point: 19°   Wind: 3mph
Humidity: 61%   Direction: 340°NNW
Pressure: 30.28"   Gusts: NA
Location:  44.6469°N, 74.9157°W
Report Text: KMSS 261453Z AUTO 34003KT 10SM CLR M01/M07 A3028 RMK AO2 SLP259 T10061072 53002
Loading
Personal Weather Stations






























Interactive Weather Map New forecast layout! Learn more

10-Day Weather Forecast

Advertisements
Track Severe Weather on mobile